sensor_id;sensor_type;location;lat;lon;timestamp;P1;durP1;ratioP1;P2;durP2;ratioP2
19535;SDS011;9913;51.168;4.124;2023-01-10T00:01:50;0.80;;;0.80;;
19535;SDS011;9913;51.168;4.124;2023-01-10T00:04:18;0.40;;;0.40;;
19535;SDS011;9913;51.168;4.124;2023-01-10T00:06:48;1.10;;;1.00;;
19535;SDS011;9913;51.168;4.124;2023-01-10T00:09:17;0.43;;;0.43;;
19535;SDS011;9913;51.168;4.124;2023-01-10T00:11:45;0.17;;;0.17;;
19535;SDS011;9913;51.168;4.124;2023-01-10T00:14:30;0.67;;;0.67;;
19535;SDS011;9913;51.168;4.124;2023-01-10T00:17:00;1.43;;;0.40;;
19535;SDS011;9913;51.168;4.124;2023-01-10T00:19:29;0.27;;;0.27;;
19535;SDS011;9913;51.168;4.124;2023-01-10T00:21:59;0.40;;;0.40;;
19535;SDS011;9913;51.168;4.124;2023-01-10T00:24:39;0.40;;;0.40;;
19535;SDS011;9913;51.168;4.124;2023-01-10T00:27:08;0.10;;;0.10;;
19535;SDS011;9913;51.168;4.124;2023-01-10T00:29:46;1.60;;;1.13;;
19535;SDS011;9913;51.168;4.124;2023-01-10T00:32:17;0.87;;;0.87;;
19535;SDS011;9913;51.168;4.124;2023-01-10T00:34:45;0.20;;;0.20;;
19535;SDS011;9913;51.168;4.124;2023-01-10T00:37:15;2.87;;;1.50;;
19535;SDS011;9913;51.168;4.124;2023-01-10T00:39:43;0.20;;;0.20;;
19535;SDS011;9913;51.168;4.124;2023-01-10T00:42:12;0.47;;;0.47;;
19535;SDS011;9913;51.168;4.124;2023-01-10T00:44:57;0.20;;;0.20;;
19535;SDS011;9913;51.168;4.124;2023-01-10T00:47:26;0.53;;;0.53;;
19535;SDS011;9913;51.168;4.124;2023-01-10T00:49:54;1.60;;;0.83;;
19535;SDS011;9913;51.168;4.124;2023-01-10T00:52:24;0.60;;;0.60;;
19535;SDS011;9913;51.168;4.124;2023-01-10T00:54:52;0.20;;;0.20;;
19535;SDS011;9913;51.168;4.124;2023-01-10T00:57:20;1.40;;;0.33;;
19535;SDS011;9913;51.168;4.124;2023-01-10T00:59:48;0.20;;;0.20;;
19535;SDS011;9913;51.168;4.124;2023-01-10T01:02:17;0.20;;;0.20;;
19535;SDS011;9913;51.168;4.124;2023-01-10T01:04:45;0.87;;;0.87;;
19535;SDS011;9913;51.168;4.124;2023-01-10T01:07:14;0.20;;;0.20;;
19535;SDS011;9913;51.168;4.124;2023-01-10T01:09:43;0.20;;;0.20;;
19535;SDS011;9913;51.168;4.124;2023-01-10T01:12:25;1.10;;;0.67;;
19535;SDS011;9913;51.168;4.124;2023-01-10T01:14:54;0.10;;;0.10;;
19535;SDS011;9913;51.168;4.124;2023-01-10T01:17:22;0.30;;;0.30;;
19535;SDS011;9913;51.168;4.124;2023-01-10T01:19:50;1.37;;;1.30;;
19535;SDS011;9913;51.168;4.124;2023-01-10T01:22:18;25.47;;;1.50;;
19535;SDS011;9913;51.168;4.124;2023-01-10T01:24:48;0.20;;;0.20;;
19535;SDS011;9913;51.168;4.124;2023-01-10T01:27:16;1.17;;;1.07;;
19535;SDS011;9913;51.168;4.124;2023-01-10T01:29:46;0.20;;;0.20;;
19535;SDS011;9913;51.168;4.124;2023-01-10T01:32:14;2.60;;;0.87;;
19535;SDS011;9913;51.168;4.124;2023-01-10T01:34:43;0.10;;;0.10;;
19535;SDS011;9913;51.168;4.124;2023-01-10T01:37:11;0.37;;;0.37;;
19535;SDS011;9913;51.168;4.124;2023-01-10T01:39:39;0.10;;;0.10;;
19535;SDS011;9913;51.168;4.124;2023-01-10T01:42:12;1.07;;;1.07;;
19535;SDS011;9913;51.168;4.124;2023-01-10T01:47:58;0.47;;;0.47;;
19535;SDS011;9913;51.168;4.124;2023-01-10T01:50:33;2.37;;;1.03;;
19535;SDS011;9913;51.168;4.124;2023-01-10T01:53:06;0.10;;;0.10;;
19535;SDS011;9913;51.168;4.124;2023-01-10T01:55:37;0.83;;;0.83;;
19535;SDS011;9913;51.168;4.124;2023-01-10T01:58:09;1.63;;;1.53;;
19535;SDS011;9913;51.168;4.124;2023-01-10T02:00:41;1.33;;;1.17;;
19535;SDS011;9913;51.168;4.124;2023-01-10T02:03:09;1.67;;;1.57;;
19535;SDS011;9913;51.168;4.124;2023-01-10T02:05:41;0.30;;;0.30;;
19535;SDS011;9913;51.168;4.124;2023-01-10T02:08:10;1.10;;;1.10;;
19535;SDS011;9913;51.168;4.124;2023-01-10T02:10:40;2.00;;;1.90;;
19535;SDS011;9913;51.168;4.124;2023-01-10T02:13:17;0.20;;;0.20;;
19535;SDS011;9913;51.168;4.124;2023-01-10T02:15:48;1.40;;;1.40;;
19535;SDS011;9913;51.168;4.124;2023-01-10T02:18:16;0.37;;;0.37;;
19535;SDS011;9913;51.168;4.124;2023-01-10T02:20:56;0.77;;;0.60;;
19535;SDS011;9913;51.168;4.124;2023-01-10T02:26:59;10.40;;;2.30;;
19535;SDS011;9913;51.168;4.124;2023-01-10T02:30:07;0.20;;;0.20;;
19535;SDS011;9913;51.168;4.124;2023-01-10T02:33:03;0.63;;;0.63;;
19535;SDS011;9913;51.168;4.124;2023-01-10T02:35:48;2.17;;;1.03;;
19535;SDS011;9913;51.168;4.124;2023-01-10T02:38:31;0.20;;;0.20;;
19535;SDS011;9913;51.168;4.124;2023-01-10T02:41:08;0.43;;;0.43;;
19535;SDS011;9913;51.168;4.124;2023-01-10T02:43:44;1.13;;;1.13;;
19535;SDS011;9913;51.168;4.124;2023-01-10T02:46:18;0.10;;;0.10;;
19535;SDS011;9913;51.168;4.124;2023-01-10T02:48:52;0.20;;;0.20;;
19535;SDS011;9913;51.168;4.124;2023-01-10T02:51:22;0.50;;;0.50;;
19535;SDS011;9913;51.168;4.124;2023-01-10T02:53:53;0.73;;;0.43;;
19535;SDS011;9913;51.168;4.124;2023-01-10T02:56:30;0.20;;;0.20;;
19535;SDS011;9913;51.168;4.124;2023-01-10T02:59:28;0.30;;;0.30;;
19535;SDS011;9913;51.168;4.124;2023-01-10T03:02:28;1.30;;;1.30;;
19535;SDS011;9913;51.168;4.124;2023-01-10T03:05:12;7.47;;;1.20;;
19535;SDS011;9913;51.168;4.124;2023-01-10T03:07:51;0.10;;;0.10;;
19535;SDS011;9913;51.168;4.124;2023-01-10T03:10:24;3.27;;;1.93;;
19535;SDS011;9913;51.168;4.124;2023-01-10T03:12:57;0.20;;;0.20;;
19535;SDS011;9913;51.168;4.124;2023-01-10T03:15:30;0.17;;;0.17;;
19535;SDS011;9913;51.168;4.124;2023-01-10T03:18:01;0.40;;;0.40;;
19535;SDS011;9913;51.168;4.124;2023-01-10T03:20:34;1.00;;;1.00;;
19535;SDS011;9913;51.168;4.124;2023-01-10T03:23:06;0.33;;;0.33;;
19535;SDS011;9913;51.168;4.124;2023-01-10T03:25:35;0.20;;;0.20;;
19535;SDS011;9913;51.168;4.124;2023-01-10T03:28:06;1.17;;;1.17;;
19535;SDS011;9913;51.168;4.124;2023-01-10T03:30:38;0.40;;;0.40;;
19535;SDS011;9913;51.168;4.124;2023-01-10T03:33:11;2.53;;;1.83;;
19535;SDS011;9913;51.168;4.124;2023-01-10T03:35:47;0.77;;;0.77;;
19535;SDS011;9913;51.168;4.124;2023-01-10T03:38:25;0.67;;;0.67;;
19535;SDS011;9913;51.168;4.124;2023-01-10T03:40:59;0.50;;;0.50;;
19535;SDS011;9913;51.168;4.124;2023-01-10T03:43:38;0.40;;;0.40;;
19535;SDS011;9913;51.168;4.124;2023-01-10T03:46:30;6.23;;;1.60;;
19535;SDS011;9913;51.168;4.124;2023-01-10T03:49:03;1.50;;;1.37;;
19535;SDS011;9913;51.168;4.124;2023-01-10T03:51:34;0.33;;;0.33;;
19535;SDS011;9913;51.168;4.124;2023-01-10T03:54:06;0.63;;;0.63;;
19535;SDS011;9913;51.168;4.124;2023-01-10T03:56:42;0.80;;;0.80;;
19535;SDS011;9913;51.168;4.124;2023-01-10T03:59:11;0.53;;;0.53;;
19535;SDS011;9913;51.168;4.124;2023-01-10T04:01:40;0.50;;;0.50;;
19535;SDS011;9913;51.168;4.124;2023-01-10T04:04:08;0.10;;;0.10;;
19535;SDS011;9913;51.168;4.124;2023-01-10T04:06:38;0.10;;;0.10;;
19535;SDS011;9913;51.168;4.124;2023-01-10T04:09:07;1.90;;;1.67;;
19535;SDS011;9913;51.168;4.124;2023-01-10T04:11:35;0.87;;;0.80;;
19535;SDS011;9913;51.168;4.124;2023-01-10T04:14:04;20.50;;;1.17;;
19535;SDS011;9913;51.168;4.124;2023-01-10T04:16:32;2.27;;;2.07;;
19535;SDS011;9913;51.168;4.124;2023-01-10T04:19:01;5.00;;;0.70;;
19535;SDS011;9913;51.168;4.124;2023-01-10T04:21:29;0.27;;;0.27;;
19535;SDS011;9913;51.168;4.124;2023-01-10T04:23:59;0.30;;;0.30;;
19535;SDS011;9913;51.168;4.124;2023-01-10T04:26:27;0.10;;;0.10;;
19535;SDS011;9913;51.168;4.124;2023-01-10T04:28:55;0.57;;;0.57;;
19535;SDS011;9913;51.168;4.124;2023-01-10T04:31:23;0.10;;;0.10;;
19535;SDS011;9913;51.168;4.124;2023-01-10T04:33:52;16.00;;;3.57;;
19535;SDS011;9913;51.168;4.124;2023-01-10T04:36:20;22.00;;;4.17;;
19535;SDS011;9913;51.168;4.124;2023-01-10T04:38:49;14.70;;;4.10;;
19535;SDS011;9913;51.168;4.124;2023-01-10T04:41:18;25.80;;;4.37;;
19535;SDS011;9913;51.168;4.124;2023-01-10T04:43:47;17.73;;;4.30;;
19535;SDS011;9913;51.168;4.124;2023-01-10T04:46:15;14.70;;;3.87;;
19535;SDS011;9913;51.168;4.124;2023-01-10T04:48:44;20.37;;;4.27;;
19535;SDS011;9913;51.168;4.124;2023-01-10T04:51:12;30.10;;;7.67;;
19535;SDS011;9913;51.168;4.124;2023-01-10T04:53:41;19.60;;;4.47;;
19535;SDS011;9913;51.168;4.124;2023-01-10T04:56:13;18.00;;;4.07;;
19535;SDS011;9913;51.168;4.124;2023-01-10T04:58:44;15.00;;;3.70;;
19535;SDS011;9913;51.168;4.124;2023-01-10T05:01:14;19.67;;;4.10;;
19535;SDS011;9913;51.168;4.124;2023-01-10T05:03:45;29.70;;;4.50;;
19535;SDS011;9913;51.168;4.124;2023-01-10T05:06:14;25.57;;;4.33;;
19535;SDS011;9913;51.168;4.124;2023-01-10T05:08:42;21.33;;;4.30;;
19535;SDS011;9913;51.168;4.124;2023-01-10T05:11:11;22.20;;;5.33;;
19535;SDS011;9913;51.168;4.124;2023-01-10T05:13:40;19.77;;;4.73;;
19535;SDS011;9913;51.168;4.124;2023-01-10T05:16:09;21.07;;;4.77;;
19535;SDS011;9913;51.168;4.124;2023-01-10T05:18:38;26.10;;;5.37;;
19535;SDS011;9913;51.168;4.124;2023-01-10T05:21:07;20.90;;;5.03;;
19535;SDS011;9913;51.168;4.124;2023-01-10T05:23:37;22.17;;;4.30;;
19535;SDS011;9913;51.168;4.124;2023-01-10T05:26:07;20.20;;;4.80;;
19535;SDS011;9913;51.168;4.124;2023-01-10T05:28:37;28.33;;;5.00;;
19535;SDS011;9913;51.168;4.124;2023-01-10T05:31:05;27.77;;;5.30;;
19535;SDS011;9913;51.168;4.124;2023-01-10T05:33:35;22.60;;;4.63;;
19535;SDS011;9913;51.168;4.124;2023-01-10T05:36:04;23.93;;;4.53;;
19535;SDS011;9913;51.168;4.124;2023-01-10T05:38:33;21.97;;;4.03;;
19535;SDS011;9913;51.168;4.124;2023-01-10T05:41:02;15.37;;;5.13;;
19535;SDS011;9913;51.168;4.124;2023-01-10T05:43:30;26.03;;;5.17;;
19535;SDS011;9913;51.168;4.124;2023-01-10T05:45:59;18.10;;;4.13;;
19535;SDS011;9913;51.168;4.124;2023-01-10T05:48:27;17.97;;;4.00;;
19535;SDS011;9913;51.168;4.124;2023-01-10T05:50:57;21.87;;;4.10;;
19535;SDS011;9913;51.168;4.124;2023-01-10T05:53:25;18.50;;;4.40;;
19535;SDS011;9913;51.168;4.124;2023-01-10T05:55:54;18.07;;;4.20;;
19535;SDS011;9913;51.168;4.124;2023-01-10T05:58:23;23.17;;;4.70;;
19535;SDS011;9913;51.168;4.124;2023-01-10T06:00:53;19.90;;;3.80;;
19535;SDS011;9913;51.168;4.124;2023-01-10T06:03:22;17.07;;;4.20;;
19535;SDS011;9913;51.168;4.124;2023-01-10T06:05:52;20.23;;;3.73;;
19535;SDS011;9913;51.168;4.124;2023-01-10T06:08:22;23.57;;;5.07;;
19535;SDS011;9913;51.168;4.124;2023-01-10T06:10:52;20.57;;;4.13;;
19535;SDS011;9913;51.168;4.124;2023-01-10T06:13:21;29.53;;;4.87;;
19535;SDS011;9913;51.168;4.124;2023-01-10T06:15:50;21.00;;;4.63;;
19535;SDS011;9913;51.168;4.124;2023-01-10T06:18:18;24.13;;;3.80;;
19535;SDS011;9913;51.168;4.124;2023-01-10T06:20:47;22.10;;;4.57;;
19535;SDS011;9913;51.168;4.124;2023-01-10T06:23:15;18.67;;;4.10;;
19535;SDS011;9913;51.168;4.124;2023-01-10T06:25:45;23.33;;;5.53;;
19535;SDS011;9913;51.168;4.124;2023-01-10T06:28:13;23.70;;;4.37;;
19535;SDS011;9913;51.168;4.124;2023-01-10T06:30:41;15.83;;;4.27;;
19535;SDS011;9913;51.168;4.124;2023-01-10T06:33:10;23.40;;;4.33;;
19535;SDS011;9913;51.168;4.124;2023-01-10T06:35:39;22.07;;;4.60;;
19535;SDS011;9913;51.168;4.124;2023-01-10T06:38:07;17.70;;;5.43;;
19535;SDS011;9913;51.168;4.124;2023-01-10T06:40:35;13.53;;;4.23;;
19535;SDS011;9913;51.168;4.124;2023-01-10T06:43:05;17.00;;;3.67;;
19535;SDS011;9913;51.168;4.124;2023-01-10T06:45:33;20.33;;;4.70;;
19535;SDS011;9913;51.168;4.124;2023-01-10T06:48:02;26.00;;;5.03;;
19535;SDS011;9913;51.168;4.124;2023-01-10T06:50:31;20.43;;;4.97;;
19535;SDS011;9913;51.168;4.124;2023-01-10T06:53:00;22.97;;;4.50;;
19535;SDS011;9913;51.168;4.124;2023-01-10T06:55:30;19.23;;;4.80;;
19535;SDS011;9913;51.168;4.124;2023-01-10T06:57:59;20.97;;;5.30;;
19535;SDS011;9913;51.168;4.124;2023-01-10T07:00:30;19.47;;;4.80;;
19535;SDS011;9913;51.168;4.124;2023-01-10T07:02:59;21.07;;;5.50;;
19535;SDS011;9913;51.168;4.124;2023-01-10T07:05:28;17.87;;;4.20;;
19535;SDS011;9913;51.168;4.124;2023-01-10T07:07:57;29.00;;;5.03;;
19535;SDS011;9913;51.168;4.124;2023-01-10T07:10:27;21.93;;;4.50;;
19535;SDS011;9913;51.168;4.124;2023-01-10T07:12:55;20.97;;;4.47;;
19535;SDS011;9913;51.168;4.124;2023-01-10T07:15:24;17.70;;;4.40;;
19535;SDS011;9913;51.168;4.124;2023-01-10T07:17:56;18.27;;;5.07;;
19535;SDS011;9913;51.168;4.124;2023-01-10T07:20:24;16.53;;;4.40;;
19535;SDS011;9913;51.168;4.124;2023-01-10T07:22:53;26.37;;;4.40;;
19535;SDS011;9913;51.168;4.124;2023-01-10T07:25:23;21.63;;;5.03;;
19535;SDS011;9913;51.168;4.124;2023-01-10T07:27:52;24.00;;;4.90;;
19535;SDS011;9913;51.168;4.124;2023-01-10T07:30:22;23.47;;;3.93;;
19535;SDS011;9913;51.168;4.124;2023-01-10T07:32:52;23.53;;;4.67;;
19535;SDS011;9913;51.168;4.124;2023-01-10T07:35:23;17.80;;;4.00;;
19535;SDS011;9913;51.168;4.124;2023-01-10T07:37:52;15.93;;;4.57;;
19535;SDS011;9913;51.168;4.124;2023-01-10T07:40:20;20.27;;;4.00;;
19535;SDS011;9913;51.168;4.124;2023-01-10T07:42:48;15.93;;;4.30;;
19535;SDS011;9913;51.168;4.124;2023-01-10T07:45:16;22.20;;;5.30;;
19535;SDS011;9913;51.168;4.124;2023-01-10T07:47:45;15.27;;;4.27;;
19535;SDS011;9913;51.168;4.124;2023-01-10T07:50:13;17.57;;;4.23;;
19535;SDS011;9913;51.168;4.124;2023-01-10T07:52:45;25.43;;;4.73;;
19535;SDS011;9913;51.168;4.124;2023-01-10T07:55:13;21.97;;;4.30;;
19535;SDS011;9913;51.168;4.124;2023-01-10T07:57:43;22.73;;;4.80;;
19535;SDS011;9913;51.168;4.124;2023-01-10T08:00:16;20.40;;;4.63;;
19535;SDS011;9913;51.168;4.124;2023-01-10T08:02:44;19.17;;;4.30;;
19535;SDS011;9913;51.168;4.124;2023-01-10T08:05:13;15.13;;;3.97;;
19535;SDS011;9913;51.168;4.124;2023-01-10T08:07:42;14.23;;;3.57;;
19535;SDS011;9913;51.168;4.124;2023-01-10T08:10:11;17.93;;;4.07;;
19535;SDS011;9913;51.168;4.124;2023-01-10T08:12:39;12.67;;;4.10;;
19535;SDS011;9913;51.168;4.124;2023-01-10T08:15:08;21.60;;;4.00;;
19535;SDS011;9913;51.168;4.124;2023-01-10T08:17:37;25.63;;;4.63;;
19535;SDS011;9913;51.168;4.124;2023-01-10T08:20:05;21.27;;;5.20;;
19535;SDS011;9913;51.168;4.124;2023-01-10T08:22:35;15.27;;;3.53;;
19535;SDS011;9913;51.168;4.124;2023-01-10T08:25:04;22.03;;;4.70;;
19535;SDS011;9913;51.168;4.124;2023-01-10T08:27:34;14.40;;;3.80;;
19535;SDS011;9913;51.168;4.124;2023-01-10T08:30:04;18.83;;;4.17;;
19535;SDS011;9913;51.168;4.124;2023-01-10T08:32:36;16.60;;;4.03;;
19535;SDS011;9913;51.168;4.124;2023-01-10T08:35:08;18.77;;;4.53;;
19535;SDS011;9913;51.168;4.124;2023-01-10T08:37:36;21.47;;;4.20;;
19535;SDS011;9913;51.168;4.124;2023-01-10T08:40:06;22.43;;;4.40;;
19535;SDS011;9913;51.168;4.124;2023-01-10T08:42:38;19.47;;;3.80;;
19535;SDS011;9913;51.168;4.124;2023-01-10T08:45:07;14.73;;;4.03;;
19535;SDS011;9913;51.168;4.124;2023-01-10T08:47:36;15.57;;;4.17;;
19535;SDS011;9913;51.168;4.124;2023-01-10T08:50:04;10.50;;;3.67;;
19535;SDS011;9913;51.168;4.124;2023-01-10T08:52:33;16.87;;;4.17;;
19535;SDS011;9913;51.168;4.124;2023-01-10T08:55:02;13.37;;;4.03;;
19535;SDS011;9913;51.168;4.124;2023-01-10T08:57:30;12.73;;;3.53;;
19535;SDS011;9913;51.168;4.124;2023-01-10T09:00:00;23.17;;;3.73;;
19535;SDS011;9913;51.168;4.124;2023-01-10T09:02:31;15.57;;;4.23;;
19535;SDS011;9913;51.168;4.124;2023-01-10T09:05:00;18.67;;;3.90;;
19535;SDS011;9913;51.168;4.124;2023-01-10T09:07:30;14.00;;;3.97;;
19535;SDS011;9913;51.168;4.124;2023-01-10T09:09:58;15.07;;;3.27;;
19535;SDS011;9913;51.168;4.124;2023-01-10T09:12:27;15.50;;;3.80;;
19535;SDS011;9913;51.168;4.124;2023-01-10T09:15:14;12.97;;;3.50;;
19535;SDS011;9913;51.168;4.124;2023-01-10T09:17:42;20.30;;;4.03;;
19535;SDS011;9913;51.168;4.124;2023-01-10T09:20:10;20.10;;;4.37;;
19535;SDS011;9913;51.168;4.124;2023-01-10T09:22:39;9.90;;;3.30;;
19535;SDS011;9913;51.168;4.124;2023-01-10T09:25:07;15.33;;;4.10;;
19535;SDS011;9913;51.168;4.124;2023-01-10T09:27:36;12.70;;;4.03;;
19535;SDS011;9913;51.168;4.124;2023-01-10T09:30:05;16.00;;;3.70;;
19535;SDS011;9913;51.168;4.124;2023-01-10T09:32:36;13.43;;;3.77;;
19535;SDS011;9913;51.168;4.124;2023-01-10T09:35:04;20.70;;;4.27;;
19535;SDS011;9913;51.168;4.124;2023-01-10T09:37:33;17.37;;;4.23;;
19535;SDS011;9913;51.168;4.124;2023-01-10T09:40:05;15.80;;;4.40;;
19535;SDS011;9913;51.168;4.124;2023-01-10T09:42:39;21.17;;;4.47;;
19535;SDS011;9913;51.168;4.124;2023-01-10T09:45:20;12.57;;;4.10;;
19535;SDS011;9913;51.168;4.124;2023-01-10T09:48:00;17.63;;;5.33;;
19535;SDS011;9913;51.168;4.124;2023-01-10T09:50:34;23.03;;;4.50;;
19535;SDS011;9913;51.168;4.124;2023-01-10T09:53:09;15.23;;;4.20;;
19535;SDS011;9913;51.168;4.124;2023-01-10T09:55:39;16.50;;;3.90;;
19535;SDS011;9913;51.168;4.124;2023-01-10T09:58:10;17.47;;;4.30;;
19535;SDS011;9913;51.168;4.124;2023-01-10T10:00:41;14.23;;;3.77;;
19535;SDS011;9913;51.168;4.124;2023-01-10T10:03:19;17.53;;;4.00;;
19535;SDS011;9913;51.168;4.124;2023-01-10T10:05:54;17.23;;;4.60;;
19535;SDS011;9913;51.168;4.124;2023-01-10T10:08:37;20.13;;;3.70;;
19535;SDS011;9913;51.168;4.124;2023-01-10T10:11:08;9.77;;;3.27;;
19535;SDS011;9913;51.168;4.124;2023-01-10T10:13:47;19.57;;;4.00;;
19535;SDS011;9913;51.168;4.124;2023-01-10T10:16:24;12.00;;;3.33;;
19535;SDS011;9913;51.168;4.124;2023-01-10T10:19:00;17.33;;;4.10;;
19535;SDS011;9913;51.168;4.124;2023-01-10T10:21:38;14.43;;;3.47;;
19535;SDS011;9913;51.168;4.124;2023-01-10T10:24:18;19.43;;;4.00;;
19535;SDS011;9913;51.168;4.124;2023-01-10T10:27:07;21.73;;;4.97;;
19535;SDS011;9913;51.168;4.124;2023-01-10T10:32:45;17.33;;;4.10;;
19535;SDS011;9913;51.168;4.124;2023-01-10T10:35:41;21.17;;;4.37;;
19535;SDS011;9913;51.168;4.124;2023-01-10T10:38:18;17.47;;;4.87;;
19535;SDS011;9913;51.168;4.124;2023-01-10T10:40:50;15.07;;;4.10;;
19535;SDS011;9913;51.168;4.124;2023-01-10T10:43:21;17.80;;;3.63;;
19535;SDS011;9913;51.168;4.124;2023-01-10T10:45:54;13.90;;;4.20;;
19535;SDS011;9913;51.168;4.124;2023-01-10T10:48:28;16.27;;;3.60;;
19535;SDS011;9913;51.168;4.124;2023-01-10T10:51:01;16.27;;;3.70;;
19535;SDS011;9913;51.168;4.124;2023-01-10T10:53:34;16.27;;;4.63;;
19535;SDS011;9913;51.168;4.124;2023-01-10T10:56:04;12.43;;;3.37;;
19535;SDS011;9913;51.168;4.124;2023-01-10T10:58:42;14.03;;;3.93;;
19535;SDS011;9913;51.168;4.124;2023-01-10T11:01:11;13.40;;;3.40;;
19535;SDS011;9913;51.168;4.124;2023-01-10T11:03:42;14.57;;;3.50;;
19535;SDS011;9913;51.168;4.124;2023-01-10T11:06:16;16.20;;;3.83;;
19535;SDS011;9913;51.168;4.124;2023-01-10T11:08:46;15.70;;;3.53;;
19535;SDS011;9913;51.168;4.124;2023-01-10T11:11:18;15.03;;;4.13;;
19535;SDS011;9913;51.168;4.124;2023-01-10T11:13:51;9.87;;;3.87;;
19535;SDS011;9913;51.168;4.124;2023-01-10T11:16:23;18.47;;;3.73;;
19535;SDS011;9913;51.168;4.124;2023-01-10T11:21:54;18.37;;;3.90;;
19535;SDS011;9913;51.168;4.124;2023-01-10T11:24:27;14.20;;;4.03;;
19535;SDS011;9913;51.168;4.124;2023-01-10T11:26:58;15.60;;;4.50;;
19535;SDS011;9913;51.168;4.124;2023-01-10T11:29:31;15.67;;;3.77;;
19535;SDS011;9913;51.168;4.124;2023-01-10T11:32:08;19.73;;;3.80;;
19535;SDS011;9913;51.168;4.124;2023-01-10T11:34:41;9.63;;;3.03;;
19535;SDS011;9913;51.168;4.124;2023-01-10T11:37:18;15.30;;;4.20;;
19535;SDS011;9913;51.168;4.124;2023-01-10T11:39:48;12.77;;;3.27;;
19535;SDS011;9913;51.168;4.124;2023-01-10T11:42:24;10.90;;;3.70;;
19535;SDS011;9913;51.168;4.124;2023-01-10T11:45:03;17.73;;;5.00;;
19535;SDS011;9913;51.168;4.124;2023-01-10T11:47:49;12.47;;;3.20;;
19535;SDS011;9913;51.168;4.124;2023-01-10T11:50:21;18.10;;;4.13;;
19535;SDS011;9913;51.168;4.124;2023-01-10T11:52:52;14.07;;;3.70;;
19535;SDS011;9913;51.168;4.124;2023-01-10T11:55:27;12.47;;;3.73;;
19535;SDS011;9913;51.168;4.124;2023-01-10T11:57:58;16.50;;;3.73;;
19535;SDS011;9913;51.168;4.124;2023-01-10T12:00:30;15.27;;;3.40;;
19535;SDS011;9913;51.168;4.124;2023-01-10T12:03:13;18.40;;;4.97;;
19535;SDS011;9913;51.168;4.124;2023-01-10T12:05:51;18.67;;;3.63;;
19535;SDS011;9913;51.168;4.124;2023-01-10T12:08:28;12.53;;;3.47;;
19535;SDS011;9913;51.168;4.124;2023-01-10T12:10:59;13.27;;;3.63;;
19535;SDS011;9913;51.168;4.124;2023-01-10T12:13:44;21.33;;;4.03;;
19535;SDS011;9913;51.168;4.124;2023-01-10T12:16:17;13.50;;;3.53;;
19535;SDS011;9913;51.168;4.124;2023-01-10T12:18:48;13.13;;;3.23;;
19535;SDS011;9913;51.168;4.124;2023-01-10T12:21:24;16.20;;;3.60;;
19535;SDS011;9913;51.168;4.124;2023-01-10T12:23:59;21.27;;;3.73;;
19535;SDS011;9913;51.168;4.124;2023-01-10T12:26:32;15.33;;;4.33;;
19535;SDS011;9913;51.168;4.124;2023-01-10T12:29:04;11.97;;;3.30;;
19535;SDS011;9913;51.168;4.124;2023-01-10T12:31:38;12.93;;;3.53;;
19535;SDS011;9913;51.168;4.124;2023-01-10T12:34:10;15.90;;;4.37;;
19535;SDS011;9913;51.168;4.124;2023-01-10T12:36:45;13.97;;;4.03;;
19535;SDS011;9913;51.168;4.124;2023-01-10T12:39:22;12.23;;;3.10;;
19535;SDS011;9913;51.168;4.124;2023-01-10T12:41:58;14.67;;;4.07;;
19535;SDS011;9913;51.168;4.124;2023-01-10T12:44:57;15.57;;;4.13;;
19535;SDS011;9913;51.168;4.124;2023-01-10T12:47:31;14.53;;;3.83;;
19535;SDS011;9913;51.168;4.124;2023-01-10T12:50:06;18.97;;;5.57;;
19535;SDS011;9913;51.168;4.124;2023-01-10T12:52:40;17.80;;;4.93;;
19535;SDS011;9913;51.168;4.124;2023-01-10T12:55:16;17.37;;;5.00;;
19535;SDS011;9913;51.168;4.124;2023-01-10T12:57:45;13.30;;;3.67;;
19535;SDS011;9913;51.168;4.124;2023-01-10T13:00:19;0.67;;;0.67;;
19535;SDS011;9913;51.168;4.124;2023-01-10T13:02:51;0.87;;;0.53;;
19535;SDS011;9913;51.168;4.124;2023-01-10T13:05:23;1.37;;;1.27;;
19535;SDS011;9913;51.168;4.124;2023-01-10T13:07:54;0.10;;;0.10;;
19535;SDS011;9913;51.168;4.124;2023-01-10T13:10:29;0.13;;;0.13;;
19535;SDS011;9913;51.168;4.124;2023-01-10T13:13:00;2.87;;;1.27;;
19535;SDS011;9913;51.168;4.124;2023-01-10T13:15:33;0.20;;;0.20;;
19535;SDS011;9913;51.168;4.124;2023-01-10T13:18:13;0.10;;;0.10;;
19535;SDS011;9913;51.168;4.124;2023-01-10T13:20:45;0.40;;;0.40;;
19535;SDS011;9913;51.168;4.124;2023-01-10T13:23:21;0.20;;;0.20;;
19535;SDS011;9913;51.168;4.124;2023-01-10T13:25:58;0.20;;;0.20;;
19535;SDS011;9913;51.168;4.124;2023-01-10T13:28:31;0.20;;;0.20;;
19535;SDS011;9913;51.168;4.124;2023-01-10T13:31:02;0.40;;;0.40;;
19535;SDS011;9913;51.168;4.124;2023-01-10T13:33:33;0.00;;;0.00;;
19535;SDS011;9913;51.168;4.124;2023-01-10T13:36:16;0.73;;;0.73;;
19535;SDS011;9913;51.168;4.124;2023-01-10T13:38:47;1.27;;;1.23;;
19535;SDS011;9913;51.168;4.124;2023-01-10T13:41:20;0.23;;;0.20;;
19535;SDS011;9913;51.168;4.124;2023-01-10T13:44:08;0.93;;;0.90;;
19535;SDS011;9913;51.168;4.124;2023-01-10T13:46:41;0.33;;;0.33;;
19535;SDS011;9913;51.168;4.124;2023-01-10T13:52:24;0.77;;;0.77;;
19535;SDS011;9913;51.168;4.124;2023-01-10T13:55:01;0.80;;;0.80;;
19535;SDS011;9913;51.168;4.124;2023-01-10T13:57:49;0.20;;;0.20;;
19535;SDS011;9913;51.168;4.124;2023-01-10T14:00:22;0.20;;;0.20;;
19535;SDS011;9913;51.168;4.124;2023-01-10T14:06:12;0.37;;;0.37;;
19535;SDS011;9913;51.168;4.124;2023-01-10T14:08:59;0.10;;;0.10;;
19535;SDS011;9913;51.168;4.124;2023-01-10T14:11:32;0.77;;;0.77;;
19535;SDS011;9913;51.168;4.124;2023-01-10T14:14:21;0.33;;;0.33;;
19535;SDS011;9913;51.168;4.124;2023-01-10T14:16:55;1.33;;;1.07;;
19535;SDS011;9913;51.168;4.124;2023-01-10T14:19:25;1.03;;;0.90;;
19535;SDS011;9913;51.168;4.124;2023-01-10T14:21:57;0.50;;;0.50;;
19535;SDS011;9913;51.168;4.124;2023-01-10T14:24:28;9.33;;;1.37;;
19535;SDS011;9913;51.168;4.124;2023-01-10T14:27:01;0.27;;;0.27;;
19535;SDS011;9913;51.168;4.124;2023-01-10T14:29:33;0.40;;;0.40;;
19535;SDS011;9913;51.168;4.124;2023-01-10T14:32:01;0.10;;;0.10;;
19535;SDS011;9913;51.168;4.124;2023-01-10T14:34:33;0.10;;;0.10;;
19535;SDS011;9913;51.168;4.124;2023-01-10T14:37:05;0.63;;;0.50;;
19535;SDS011;9913;51.168;4.124;2023-01-10T14:39:36;0.67;;;0.67;;
19535;SDS011;9913;51.168;4.124;2023-01-10T14:42:06;0.40;;;0.40;;
19535;SDS011;9913;51.168;4.124;2023-01-10T14:44:39;5.60;;;0.80;;
19535;SDS011;9913;51.168;4.124;2023-01-10T14:47:24;0.20;;;0.20;;
19535;SDS011;9913;51.168;4.124;2023-01-10T14:49:54;0.10;;;0.10;;
19535;SDS011;9913;51.168;4.124;2023-01-10T14:52:25;1.50;;;1.40;;
19535;SDS011;9913;51.168;4.124;2023-01-10T14:54:54;1.13;;;0.50;;
19535;SDS011;9913;51.168;4.124;2023-01-10T14:57:29;3.50;;;1.80;;
19535;SDS011;9913;51.168;4.124;2023-01-10T15:00:07;0.53;;;0.53;;
19535;SDS011;9913;51.168;4.124;2023-01-10T15:02:43;0.27;;;0.27;;
19535;SDS011;9913;51.168;4.124;2023-01-10T15:05:14;0.80;;;0.80;;
19535;SDS011;9913;51.168;4.124;2023-01-10T15:07:45;10.60;;;1.40;;
19535;SDS011;9913;51.168;4.124;2023-01-10T15:10:17;0.10;;;0.10;;
19535;SDS011;9913;51.168;4.124;2023-01-10T15:12:50;0.40;;;0.40;;
19535;SDS011;9913;51.168;4.124;2023-01-10T15:15:23;0.10;;;0.10;;
19535;SDS011;9913;51.168;4.124;2023-01-10T15:17:57;0.10;;;0.10;;
19535;SDS011;9913;51.168;4.124;2023-01-10T15:20:27;0.27;;;0.27;;
19535;SDS011;9913;51.168;4.124;2023-01-10T15:22:57;0.30;;;0.30;;
19535;SDS011;9913;51.168;4.124;2023-01-10T15:25:28;0.10;;;0.10;;
19535;SDS011;9913;51.168;4.124;2023-01-10T15:27:59;0.10;;;0.10;;
19535;SDS011;9913;51.168;4.124;2023-01-10T15:30:30;1.10;;;1.00;;
19535;SDS011;9913;51.168;4.124;2023-01-10T15:33:04;0.50;;;0.50;;
19535;SDS011;9913;51.168;4.124;2023-01-10T15:35:39;0.43;;;0.40;;
19535;SDS011;9913;51.168;4.124;2023-01-10T15:38:10;0.83;;;0.77;;
19535;SDS011;9913;51.168;4.124;2023-01-10T15:40:41;0.50;;;0.50;;
19535;SDS011;9913;51.168;4.124;2023-01-10T15:43:11;0.10;;;0.10;;